Back to top

Yellowstone, WY weather

Yellowstone (RAMOS), Yellowstone, WY: 11/13/2019 16:56
Visibilityunavailableclear sky
View 7-Day Forecast
Area Summary
Sky/Clouds
Weather [last 24 hours]None
Pressure30.15 in.Hg (1021 hPa)
3-hour Pressure Tendency0.02657 in.Hg (0.9 hPa) Decreasing or steady, then increasing; or increasing then increasing more rapidly
Dew Point18 °F (-7.8 °C)
Relative Humidity 71 %
Temperature26.1 °F (-3.3 °C)red thermometer
Reading TimeMinimum to Maximum Temperature
6-hr ending 11/13@16:5626.1 °F to 37 °F (-3.3 °C to 2.8 °C)
6-hr ending 11/13@10:5628 °F to 34 °F (-2.2 °C to 1.1 °C)
6-hr ending 11/13@04:5625 °F to 32 °F (-3.9 °C to 0 °C)
6-hr ending 11/12@22:5628.9 °F to 33.1 °F (-1.7 °C to 0.6 °C)
24-hr ending 11/12@23:563.9 °F to 37 °F (-15.6 °C to 2.8 °C)
Wind0 MPH (0 KT) green arrow pointing at 0 degrees
Wind FromNorth (000 Degrees)
Twilight Begins06:43Sunshine Yesterday
Sunrise07:15N/A
Sunset16:57
Twilight Ends17:28
METARKP60 132356Z AUTO 00000KT M03/M08 A3015 RMK AO1 SLP224 T10331078 10028 21033 53009
Tags: